Time;durP1;ratioP1;P1;durP2;ratioP2;P2;SDS_P1;SDS_P2;PMS_P1;PMS_P2;Temp;Humidity;BMP_temperature;BMP_pressure;BME280_temperature;BME280_humidity;BME280_pressure;Samples;Min_cycle;Max_cycle;Signal;HPM_P1;HPM_P2
2023/10/20 00:01:41;;;;;;;16.83;15.13;;;;;;;9.20;100.00;97996.81;5039759;28;20202;-85
2023/10/20 00:04:07;;;;;;;16.67;15.07;;;;;;;9.21;100.00;97985.47;5044227;28;20623;-85
2023/10/20 00:06:38;;;;;;;16.97;14.90;;;;;;;9.21;100.00;97959.44;5040913;28;20600;-87
2023/10/20 00:09:05;;;;;;;17.57;15.77;;;;;;;9.21;100.00;97970.69;5040952;28;20211;-83
2023/10/20 00:11:32;;;;;;;16.83;15.27;;;;;;;9.20;100.00;97960.38;5041998;28;20206;-86
2023/10/20 00:13:58;;;;;;;15.87;14.43;;;;;;;9.21;100.00;97965.47;5039785;28;20198;-85
2023/10/20 00:16:25;;;;;;;16.27;14.67;;;;;;;9.25;100.00;97956.56;5043206;28;20206;-86
2023/10/20 00:18:52;;;;;;;15.43;13.97;;;;;;;9.27;100.00;97962.53;5039714;28;20225;-84
2023/10/20 00:21:19;;;;;;;15.93;14.47;;;;;;;9.39;100.00;97978.44;5041773;28;20204;-85
2023/10/20 00:23:47;;;;;;;16.83;15.27;;;;;;;9.30;100.00;97977.19;5039825;28;20260;-86
2023/10/20 00:26:13;;;;;;;17.83;15.17;;;;;;;9.43;100.00;97983.38;5038975;28;20214;-87
2023/10/20 00:28:40;;;;;;;16.83;15.07;;;;;;;9.48;100.00;97984.00;5038765;28;20633;-86
2023/10/20 00:31:06;;;;;;;17.10;15.47;;;;;;;9.52;100.00;97995.91;5043088;28;20198;-84
2023/10/20 00:33:32;;;;;;;16.30;14.60;;;;;;;9.53;100.00;97999.34;5039910;28;20213;-85
2023/10/20 00:35:59;;;;;;;17.57;15.63;;;;;;;9.64;100.00;98009.22;5037139;28;20212;-86
2023/10/20 00:38:25;;;;;;;18.30;15.57;;;;;;;9.65;100.00;98016.09;5032468;28;20230;-87
2023/10/20 00:40:53;;;;;;;18.93;16.47;;;;;;;9.61;100.00;98022.38;5030836;28;20207;-86
2023/10/20 00:43:20;;;;;;;18.70;15.27;;;;;;;9.61;100.00;98032.81;5027074;28;20199;-86
2023/10/20 00:45:47;;;;;;;18.53;14.77;;;;;;;9.44;100.00;98031.94;5031313;28;20203;-85
2023/10/20 00:48:15;;;;;;;19.20;15.97;;;;;;;9.24;100.00;98009.56;5031560;28;20581;-86
2023/10/20 00:50:43;;;;;;;19.00;16.83;;;;;;;9.17;100.00;97986.56;5046067;28;20459;-86
2023/10/20 00:53:11;;;;;;;19.40;16.33;;;;;;;9.14;100.00;97987.56;5033363;28;20270;-86
2023/10/20 00:55:37;;;;;;;17.37;15.57;;;;;;;9.09;100.00;97968.72;5036481;28;20216;-86
2023/10/20 00:58:06;;;;;;;18.93;15.93;;;;;;;9.10;100.00;97957.41;5051614;28;20321;-87
2023/10/20 01:00:32;;;;;;;21.53;17.37;;;;;;;9.11;100.00;97949.50;5031801;28;20241;-85
2023/10/20 01:03:00;;;;;;;20.10;16.67;;;;;;;9.10;100.00;97942.63;5032360;28;20206;-87
2023/10/20 01:05:26;;;;;;;19.77;16.20;;;;;;;9.11;100.00;97938.25;5032894;28;20211;-87
2023/10/20 01:07:53;;;;;;;18.10;15.83;;;;;;;9.11;100.00;97930.47;5031902;28;20231;-86
2023/10/20 01:10:19;;;;;;;18.90;15.80;;;;;;;9.34;100.00;97934.44;5031982;28;20203;-87
2023/10/20 01:12:46;;;;;;;21.10;16.13;;;;;;;9.49;100.00;97953.56;5031040;28;20214;-86
2023/10/20 01:15:16;;;;;;;18.40;16.53;;;;;;;9.54;100.00;97959.38;5032299;28;20214;-87
2023/10/20 01:17:42;;;;;;;19.57;15.87;;;;;;;9.61;100.00;97980.72;5031550;28;20233;-86
2023/10/20 01:20:10;;;;;;;20.90;14.97;;;;;;;9.65;100.00;97993.50;5031388;28;20204;-85
2023/10/20 01:22:36;;;;;;;15.20;13.47;;;;;;;9.66;100.00;98018.63;5032050;28;20207;-85
2023/10/20 01:25:05;;;;;;;18.10;14.00;;;;;;;9.65;100.00;98018.69;5032418;28;20203;-86
2023/10/20 01:27:31;;;;;;;15.67;14.07;;;;;;;9.65;100.00;98019.56;5048946;28;20226;-86
2023/10/20 01:29:57;;;;;;;16.00;14.50;;;;;;;9.64;100.00;98022.22;5032389;28;20211;-86
2023/10/20 01:32:24;;;;;;;15.20;13.60;;;;;;;9.63;100.00;98021.41;5031671;28;20203;-85
2023/10/20 01:34:50;;;;;;;17.03;15.23;;;;;;;9.62;100.00;98022.31;5032299;28;20218;-86
2023/10/20 01:37:17;;;;;;;16.77;14.73;;;;;;;9.57;100.00;98021.69;5028556;28;20226;-86
2023/10/20 01:39:44;;;;;;;17.47;14.97;;;;;;;9.59;100.00;98012.03;5028940;28;20377;-87
2023/10/20 01:42:12;;;;;;;18.20;15.20;;;;;;;9.60;100.00;98007.69;5037330;28;20212;-84
2023/10/20 01:44:38;;;;;;;19.80;15.93;;;;;;;9.57;100.00;98006.06;5046168;28;20210;-86
2023/10/20 01:47:05;;;;;;;17.60;15.83;;;;;;;9.56;100.00;98003.59;5047295;28;20241;-86
2023/10/20 01:49:32;;;;;;;16.83;15.03;;;;;;;9.55;100.00;97994.91;5035310;28;20297;-87
2023/10/20 01:51:58;;;;;;;22.73;16.13;;;;;;;9.52;100.00;97990.72;5043075;28;20214;-87
2023/10/20 01:54:25;;;;;;;18.97;16.40;;;;;;;9.50;100.00;97974.31;5030690;28;20211;-87
2023/10/20 01:56:51;;;;;;;21.87;15.83;;;;;;;9.49;100.00;97961.38;5045578;28;20217;-86
2023/10/20 01:59:19;;;;;;;19.83;15.93;;;;;;;9.49;100.00;97958.78;5040097;28;20207;-87
2023/10/20 02:01:45;;;;;;;23.23;16.77;;;;;;;9.46;100.00;97967.59;5030609;28;20206;-85
2023/10/20 02:04:12;;;;;;;20.37;16.67;;;;;;;9.47;100.00;97958.84;5030559;28;20225;-86
2023/10/20 02:06:38;;;;;;;21.37;17.17;;;;;;;9.48;100.00;97938.88;5028695;28;20211;-87
2023/10/20 02:09:06;;;;;;;19.57;16.53;;;;;;;9.50;100.00;97924.03;5031315;28;20309;-86
2023/10/20 02:11:32;;;;;;;19.97;16.13;;;;;;;9.47;100.00;97930.22;5046033;28;20270;-86
2023/10/20 02:13:59;;;;;;;18.03;16.07;;;;;;;9.46;100.00;97925.13;5028562;28;20676;-87
2023/10/20 02:16:26;;;;;;;19.90;17.73;;;;;;;9.46;100.00;97917.31;5026081;28;20226;-87
2023/10/20 02:18:53;;;;;;;19.73;15.90;;;;;;;9.46;100.00;97906.88;5027079;28;20231;-84
2023/10/20 02:21:19;;;;;;;19.67;16.47;;;;;;;9.46;100.00;97905.13;5030139;28;20214;-87
2023/10/20 02:23:46;;;;;;;18.87;15.80;;;;;;;9.47;100.00;97900.75;5030225;28;20499;-86
2023/10/20 02:26:13;;;;;;;17.87;15.97;;;;;;;9.46;100.00;97896.47;5040338;28;20210;-85
2023/10/20 02:28:40;;;;;;;20.90;16.53;;;;;;;9.46;100.00;97907.72;5043832;28;20328;-86
2023/10/20 02:31:13;;;;;;;25.20;17.20;;;;;;;9.45;100.00;97906.03;5030583;28;20206;-85
2023/10/20 02:33:41;;;;;;;22.27;17.20;;;;;;;9.47;100.00;97903.34;5030426;28;20299;-85
2023/10/20 02:36:12;;;;;;;19.30;17.07;;;;;;;9.46;100.00;97893.88;5031243;28;20217;-86
2023/10/20 02:38:39;;;;;;;23.77;17.47;;;;;;;9.46;100.00;97896.47;5037522;28;20554;-85
2023/10/20 02:41:05;;;;;;;22.30;17.40;;;;;;;9.44;100.00;97888.75;5029605;28;20211;-85
2023/10/20 02:43:32;;;;;;;22.67;17.73;;;;;;;9.43;100.00;97889.66;5029531;28;20215;-85
2023/10/20 02:45:59;;;;;;;24.43;17.77;;;;;;;9.41;100.00;97888.91;5029072;28;20246;-86
2023/10/20 02:48:25;;;;;;;20.27;17.80;;;;;;;9.43;100.00;97881.84;5029569;28;20249;-87
2023/10/20 02:50:53;;;;;;;26.13;18.17;;;;;;;9.42;100.00;97866.31;5030093;28;20230;-85
2023/10/20 02:53:20;;;;;;;24.17;17.40;;;;;;;9.41;100.00;97867.25;5029268;28;20218;-86
2023/10/20 02:55:46;;;;;;;26.67;19.33;;;;;;;9.39;100.00;97872.53;5028849;28;20211;-85
2023/10/20 02:58:13;;;;;;;26.33;18.47;;;;;;;9.38;100.00;97860.44;5045231;28;20597;-86
2023/10/20 03:00:42;;;;;;;27.03;17.73;;;;;;;9.41;100.00;97862.03;5048491;28;20233;-87
2023/10/20 03:03:10;;;;;;;24.87;17.10;;;;;;;9.43;100.00;97860.19;5048792;28;20214;-86
2023/10/20 03:05:37;;;;;;;27.03;17.67;;;;;;;9.43;100.00;97860.19;5047779;28;20214;-85
2023/10/20 03:08:05;;;;;;;23.67;18.67;;;;;;;9.45;100.00;97847.91;5046279;28;20231;-87
2023/10/20 03:10:32;;;;;;;18.90;16.10;;;;;;;9.44;100.00;97844.47;5027281;28;20211;-87
2023/10/20 03:12:58;;;;;;;22.33;17.47;;;;;;;9.47;100.00;97840.84;5026377;28;20210;-85
2023/10/20 03:15:25;;;;;;;26.10;17.80;;;;;;;9.47;100.00;97846.88;5027580;28;20221;-86
2023/10/20 03:17:51;;;;;;;24.93;18.10;;;;;;;9.48;100.00;97851.19;5028912;28;20229;-86
2023/10/20 03:20:24;;;;;;;21.90;17.60;;;;;;;9.48;100.00;97845.97;5027804;28;20207;-85
2023/10/20 03:22:51;;;;;;;25.20;16.53;;;;;;;9.49;100.00;97839.00;5029268;28;20212;-86
2023/10/20 03:25:18;;;;;;;25.90;17.00;;;;;;;9.46;100.00;97841.78;5030261;28;20211;-86
2023/10/20 03:27:45;;;;;;;22.50;17.73;;;;;;;9.47;100.00;97831.28;5046946;28;20260;-85
2023/10/20 03:30:11;;;;;;;21.77;17.50;;;;;;;9.46;100.00;97842.63;5031092;28;20670;-87
2023/10/20 03:32:38;;;;;;;20.73;15.97;;;;;;;9.47;100.00;97828.66;5034715;28;20214;-85
2023/10/20 03:35:06;;;;;;;19.63;16.43;;;;;;;9.47;100.00;97827.84;5029161;28;20222;-85
2023/10/20 03:37:34;;;;;;;21.30;16.13;;;;;;;9.47;100.00;97822.63;5029517;28;20259;-85
2023/10/20 03:40:01;;;;;;;21.23;16.57;;;;;;;9.46;100.00;97826.16;5030489;28;20309;-85
2023/10/20 03:42:28;;;;;;;21.63;17.20;;;;;;;9.44;100.00;97817.59;5034965;28;20197;-84
2023/10/20 03:44:56;;;;;;;19.47;15.53;;;;;;;9.42;100.00;97817.69;5029467;28;20225;-85
2023/10/20 03:47:27;;;;;;;18.10;15.03;;;;;;;9.40;100.00;97811.72;5027440;28;20591;-87
2023/10/20 03:49:57;;;;;;;20.57;15.93;;;;;;;9.38;100.00;97803.16;5028419;28;20230;-88
2023/10/20 03:52:24;;;;;;;20.00;14.50;;;;;;;9.36;100.00;97786.78;5026868;28;20207;-86
2023/10/20 03:54:52;;;;;;;23.67;15.57;;;;;;;9.33;100.00;97779.16;5029238;28;20205;-87
2023/10/20 03:57:19;;;;;;;23.90;16.93;;;;;;;9.30;100.00;97777.56;5046895;28;20230;-87
2023/10/20 03:59:47;;;;;;;17.27;15.27;;;;;;;9.31;100.00;97776.63;5034613;28;20238;-86
2023/10/20 04:02:14;;;;;;;20.07;15.23;;;;;;;9.32;100.00;97772.28;5024421;28;20214;-86
2023/10/20 04:04:40;;;;;;;19.93;14.77;;;;;;;9.33;100.00;97764.34;5031350;28;20190;-85
2023/10/20 04:07:07;;;;;;;19.37;14.87;;;;;;;9.36;100.00;97762.53;5050664;28;20213;-85
2023/10/20 04:09:35;;;;;;;19.17;14.40;;;;;;;9.37;100.00;97775.44;5049275;28;20225;-85
2023/10/20 04:12:01;;;;;;;19.40;13.77;;;;;;;9.37;100.00;97774.63;5058409;28;20202;-86
2023/10/20 04:14:29;;;;;;;16.43;13.57;;;;;;;9.34;100.00;97776.47;5057802;28;20186;-87
2023/10/20 04:16:57;;;;;;;16.87;13.40;;;;;;;9.37;100.00;97783.25;5042333;28;20281;-87
2023/10/20 04:19:25;;;;;;;17.60;12.70;;;;;;;9.39;100.00;97776.19;5039715;28;20572;-85
2023/10/20 04:21:51;;;;;;;13.37;11.97;;;;;;;9.34;100.00;97771.25;5032065;28;20199;-86
2023/10/20 04:24:20;;;;;;;15.67;12.77;;;;;;;9.32;100.00;97762.69;5036335;28;20271;-84
2023/10/20 04:26:47;;;;;;;15.10;13.43;;;;;;;9.34;100.00;97754.81;5037330;28;20219;-86
2023/10/20 04:29:34;;;;;;;14.80;12.47;;;;;;;9.37;100.00;97761.59;5031584;28;20253;-86
2023/10/20 04:51:26;;;;;;;15.27;10.90;;;;;;;9.04;100.00;97648.06;5032682;28;20268;-86
2023/10/20 04:53:53;;;;;;;14.60;10.77;;;;;;;9.14;100.00;97672.66;5046956;28;20299;-86
2023/10/20 04:56:32;;;;;;;12.63;11.30;;;;;;;9.11;100.00;97676.25;5040491;28;20225;-86
2023/10/20 04:59:04;;;;;;;10.57;9.53;;;;;;;9.16;100.00;97691.63;5036531;28;20215;-85
2023/10/20 05:01:40;;;;;;;11.83;9.80;;;;;;;9.18;100.00;97709.75;5031170;28;21001;-86
2023/10/20 05:04:14;;;;;;;10.47;9.37;;;;;;;9.21;100.00;97715.63;5030372;28;20198;-86
2023/10/20 05:06:43;;;;;;;9.50;8.50;;;;;;;9.28;100.00;97710.91;5030065;28;20293;-86
2023/10/20 05:09:13;;;;;;;10.27;9.27;;;;;;;9.31;100.00;97713.31;5048444;28;20217;-86
2023/10/20 05:11:39;;;;;;;9.90;8.23;;;;;;;9.30;100.00;97714.25;5037720;28;20222;-86
2023/10/20 05:14:06;;;;;;;9.13;8.23;;;;;;;9.27;100.00;97724.84;5029442;28;20207;-86
2023/10/20 05:16:33;;;;;;;8.30;7.50;;;;;;;9.28;100.00;97732.56;5029918;28;20204;-86
2023/10/20 05:19:02;;;;;;;8.17;7.00;;;;;;;9.27;100.00;97737.84;5029427;28;20199;-85
2023/10/20 05:21:33;;;;;;;7.70;7.00;;;;;;;9.31;100.00;97742.78;5029607;28;20230;-85
2023/10/20 05:24:01;;;;;;;8.43;7.63;;;;;;;9.31;100.00;97745.38;5028746;28;20206;-86
2023/10/20 05:26:27;;;;;;;7.27;6.57;;;;;;;9.22;100.00;97730.31;5029081;28;20210;-86
2023/10/20 05:28:55;;;;;;;8.43;6.70;;;;;;;9.36;100.00;97715.69;5027448;28;20227;-86
2023/10/20 05:31:23;;;;;;;8.00;7.20;;;;;;;9.39;100.00;97712.88;5025845;28;20202;-86
2023/10/20 05:33:50;;;;;;;7.70;7.00;;;;;;;9.30;100.00;97709.06;5024542;28;20622;-85
2023/10/20 05:36:16;;;;;;;8.57;7.77;;;;;;;9.24;100.00;97735.44;5025371;28;20718;-85
2023/10/20 05:38:44;;;;;;;8.70;7.90;;;;;;;9.31;100.00;97726.34;5029850;28;20218;-87
2023/10/20 05:41:11;;;;;;;8.67;7.77;;;;;;;9.38;100.00;97729.44;5047616;28;20855;-87
2023/10/20 05:43:38;;;;;;;8.87;8.00;;;;;;;9.12;100.00;97729.16;5047866;28;20562;-86
2023/10/20 05:46:05;;;;;;;8.17;7.37;;;;;;;9.40;100.00;97730.19;5047759;28;20206;-86
2023/10/20 05:48:31;;;;;;;8.93;8.13;;;;;;;9.44;100.00;97739.50;5045980;28;20238;-86
2023/10/20 05:50:58;;;;;;;7.20;6.60;;;;;;;9.42;100.00;97754.38;5047113;28;20229;-86
2023/10/20 05:53:25;;;;;;;7.80;7.10;;;;;;;9.40;100.00;97756.22;5046090;28;20203;-86
2023/10/20 05:55:53;;;;;;;7.00;6.40;;;;;;;9.28;100.00;97735.16;5045820;28;20221;-86
2023/10/20 05:58:20;;;;;;;7.70;7.03;;;;;;;9.30;100.00;97738.53;5044995;28;20229;-86
2023/10/20 06:00:48;;;;;;;6.73;6.23;;;;;;;9.30;100.00;97735.09;5046737;28;20209;-87
2023/10/20 06:03:14;;;;;;;7.17;6.57;;;;;;;9.25;100.00;97737.09;5037028;28;20203;-85
2023/10/20 06:05:41;;;;;;;6.70;6.13;;;;;;;9.31;100.00;97737.56;5033310;28;20213;-85
2023/10/20 06:08:07;;;;;;;6.73;6.20;;;;;;;9.35;100.00;97735.66;5041866;28;20725;-85
2023/10/20 06:10:34;;;;;;;6.70;6.20;;;;;;;9.34;100.00;97736.59;5042853;28;20220;-86
2023/10/20 06:13:03;;;;;;;7.30;6.67;;;;;;;9.32;100.00;97739.28;5028612;28;20207;-86
2023/10/20 06:15:31;;;;;;;6.80;6.30;;;;;;;9.28;100.00;97724.75;5027018;28;20293;-86
2023/10/20 06:17:58;;;;;;;6.80;6.20;;;;;;;9.15;100.00;97690.78;5025713;28;20222;-86
2023/10/20 06:20:24;;;;;;;7.03;6.40;;;;;;;9.23;100.00;97676.50;5022216;28;20199;-86
2023/10/20 06:22:51;;;;;;;6.70;6.13;;;;;;;9.25;100.00;97679.84;5029063;28;20206;-86
2023/10/20 06:25:17;;;;;;;6.60;6.10;;;;;;;9.27;100.00;97704.00;5034258;28;20210;-87
2023/10/20 06:27:45;;;;;;;7.53;6.90;;;;;;;9.27;100.00;97691.00;5021977;28;20222;-86
2023/10/20 06:30:19;;;;;;;6.73;6.23;;;;;;;9.29;100.00;97697.78;5023122;28;20310;-87
2023/10/20 06:32:46;;;;;;;7.03;6.43;;;;;;;9.30;100.00;97690.84;5025729;28;20205;-86
2023/10/20 06:35:13;;;;;;;7.07;6.53;;;;;;;9.28;100.00;97685.72;5024976;28;20207;-86
2023/10/20 06:37:46;;;;;;;6.63;6.03;;;;;;;9.27;100.00;97681.41;5035227;28;20226;-86
2023/10/20 06:40:15;;;;;;;6.70;6.10;;;;;;;9.28;100.00;97687.50;5044707;28;20212;-86
2023/10/20 06:42:43;;;;;;;6.60;6.10;;;;;;;9.30;100.00;97678.66;5051261;28;20221;-84
2023/10/20 06:45:10;;;;;;;6.57;6.07;;;;;;;9.26;100.00;97669.34;5055826;28;20283;-86
2023/10/20 06:47:39;;;;;;;6.33;5.83;;;;;;;9.25;100.00;97662.44;5055678;28;20282;-86
2023/10/20 06:50:06;;;;;;;5.80;5.40;;;;;;;9.27;100.00;97659.75;5054263;28;20250;-85
2023/10/20 06:52:35;;;;;;;6.30;5.80;;;;;;;9.27;100.00;97652.78;5054958;28;20194;-85
2023/10/20 06:55:02;;;;;;;6.13;5.70;;;;;;;9.24;100.00;97650.38;5046245;28;20261;-85
2023/10/20 06:57:28;;;;;;;6.03;5.53;;;;;;;9.21;100.00;97653.16;5017881;28;20239;-83
2023/10/20 06:59:54;;;;;;;6.17;5.67;;;;;;;9.14;100.00;97644.88;5013817;28;20199;-82
2023/10/20 07:02:21;;;;;;;6.37;5.87;;;;;;;9.15;100.00;97650.91;5021833;28;20209;-83
2023/10/20 07:04:49;;;;;;;6.20;5.70;;;;;;;9.11;100.00;97633.78;5014594;28;20215;-82
2023/10/20 07:07:17;;;;;;;6.03;5.43;;;;;;;9.08;100.00;97623.59;5021671;28;20218;-84
2023/10/20 07:09:45;;;;;;;6.00;5.50;;;;;;;9.05;100.00;97608.13;5031072;28;20254;-81
2023/10/20 07:12:11;;;;;;;5.87;5.47;;;;;;;9.04;100.00;97617.72;5014766;28;20208;-85
2023/10/20 07:14:39;;;;;;;6.10;5.70;;;;;;;9.03;100.00;97626.44;5014231;28;20218;-83
2023/10/20 07:17:06;;;;;;;6.00;5.60;;;;;;;9.04;100.00;97627.25;5014875;28;20257;-84
2023/10/20 07:19:33;;;;;;;5.47;4.97;;;;;;;9.02;100.00;97610.91;5015131;28;20214;-84
2023/10/20 07:22:02;;;;;;;6.07;5.67;;;;;;;9.01;100.00;97607.47;5014687;28;20199;-82
2023/10/20 07:24:29;;;;;;;5.43;5.03;;;;;;;9.02;100.00;97600.50;5014279;28;20234;-83
2023/10/20 07:26:55;;;;;;;4.83;4.53;;;;;;;9.01;100.00;97598.84;5014206;28;20249;-84
2023/10/20 07:29:22;;;;;;;4.87;4.57;;;;;;;9.00;100.00;97602.34;5014644;28;20230;-84
2023/10/20 07:31:48;;;;;;;4.70;4.40;;;;;;;9.00;100.00;97599.75;5014639;28;20207;-83
2023/10/20 07:34:15;;;;;;;5.10;4.70;;;;;;;9.01;100.00;97599.66;5015555;28;20579;-84
2023/10/20 07:36:42;;;;;;;4.77;4.47;;;;;;;9.02;100.00;97592.69;5017383;28;20207;-84
2023/10/20 07:39:15;;;;;;;4.70;4.40;;;;;;;9.04;100.00;97585.63;5034226;28;20203;-83
2023/10/20 07:41:41;;;;;;;4.53;4.23;;;;;;;9.05;100.00;97587.31;5016678;28;20294;-84
2023/10/20 07:44:09;;;;;;;4.63;4.33;;;;;;;9.03;100.00;97584.81;5015203;28;20712;-83
2023/10/20 07:46:35;;;;;;;5.03;4.63;;;;;;;9.01;100.00;97576.25;5015848;28;20214;-84
2023/10/20 07:49:03;;;;;;;5.10;4.63;;;;;;;8.99;100.00;97561.66;5014748;28;20237;-83
2023/10/20 07:51:29;;;;;;;4.83;4.47;;;;;;;8.95;100.00;97577.44;5014759;28;20225;-82
2023/10/20 07:53:55;;;;;;;3.90;3.60;;;;;;;8.84;100.00;97572.06;5020157;28;20213;-83
2023/10/20 07:56:24;;;;;;;4.07;3.77;;;;;;;8.92;100.00;97561.19;5018860;28;20209;-82
2023/10/20 07:58:51;;;;;;;4.10;3.83;;;;;;;8.90;100.00;97547.41;5018771;28;20218;-84
2023/10/20 08:01:19;;;;;;;3.70;3.40;;;;;;;8.90;100.00;97542.22;5034632;28;20206;-82
2023/10/20 08:03:47;;;;;;;3.57;3.27;;;;;;;8.86;100.00;97541.59;5018864;28;20581;-83
2023/10/20 08:06:14;;;;;;;3.70;3.50;;;;;;;8.86;100.00;97538.97;5018125;28;20206;-83
2023/10/20 08:08:40;;;;;;;4.50;4.10;;;;;;;8.87;100.00;97525.03;5028240;28;20230;-82
2023/10/20 08:11:07;;;;;;;4.63;4.23;;;;;;;8.90;100.00;97521.41;5038813;28;20292;-84
2023/10/20 08:13:35;;;;;;;4.33;3.97;;;;;;;8.89;100.00;97512.78;5038070;28;20226;-84
2023/10/20 08:16:01;;;;;;;3.67;3.37;;;;;;;8.85;100.00;97532.09;5038996;28;20206;-85
2023/10/20 08:18:30;;;;;;;3.17;2.93;;;;;;;8.85;100.00;97515.66;5037977;28;20743;-83
2023/10/20 08:21:03;;;;;;;3.90;3.60;;;;;;;8.89;100.00;97509.34;5018369;28;20203;-83
2023/10/20 08:23:29;;;;;;;3.50;3.30;;;;;;;8.87;100.00;97516.41;5017863;28;20222;-85
2023/10/20 08:25:56;;;;;;;3.40;3.20;;;;;;;8.86;100.00;97499.97;5021909;28;20817;-84
2023/10/20 08:28:22;;;;;;;3.40;3.10;;;;;;;8.91;100.00;97510.09;5022063;28;20252;-83
2023/10/20 08:30:50;;;;;;;3.37;3.07;;;;;;;8.92;100.00;97511.78;5030359;28;20230;-83
2023/10/20 08:33:16;;;;;;;3.00;2.73;;;;;;;8.98;100.00;97513.16;5033525;28;20620;-83
2023/10/20 08:35:43;;;;;;;2.80;2.60;;;;;;;9.02;100.00;97512.03;5031740;28;20206;-83
2023/10/20 08:38:10;;;;;;;2.73;2.53;;;;;;;9.05;100.00;97517.06;5033591;28;20223;-82
2023/10/20 08:40:36;;;;;;;2.90;2.70;;;;;;;9.07;100.00;97525.63;5027143;28;20203;-81
2023/10/20 08:43:04;;;;;;;3.27;3.07;;;;;;;9.08;100.00;97528.13;5017245;28;20202;-83
2023/10/20 08:45:32;;;;;;;2.93;2.73;;;;;;;9.11;100.00;97525.34;5028206;28;20261;-82
2023/10/20 08:48:02;;;;;;;2.47;2.37;;;;;;;9.15;100.00;97539.00;5017060;28;20238;-84
2023/10/20 08:50:31;;;;;;;2.80;2.60;;;;;;;9.15;100.00;97550.25;5027381;28;20231;-83
2023/10/20 08:52:59;;;;;;;2.73;2.57;;;;;;;9.15;100.00;97545.03;5018277;28;20231;-84
2023/10/20 08:55:26;;;;;;;3.40;3.10;;;;;;;9.20;100.00;97547.38;5020507;28;20195;-83
2023/10/20 08:57:52;;;;;;;3.07;2.77;;;;;;;9.21;100.00;97546.44;5018668;28;20310;-88
2023/10/20 09:00:20;;;;;;;3.10;2.90;;;;;;;9.17;100.00;97554.53;5028654;28;20214;-85
2023/10/20 09:02:47;;;;;;;2.83;2.63;;;;;;;9.17;100.00;97557.97;5028538;28;20289;-86
2023/10/20 09:05:21;;;;;;;3.30;3.10;;;;;;;9.18;100.00;97566.59;5030585;28;20213;-86
2023/10/20 09:07:51;;;;;;;3.10;2.90;;;;;;;9.18;100.00;97557.06;5038095;28;20222;-86
2023/10/20 09:10:18;;;;;;;3.10;2.90;;;;;;;9.20;100.00;97560.41;5031713;28;20745;-89
2023/10/20 09:12:44;;;;;;;2.57;2.47;;;;;;;9.18;100.00;97558.78;5018323;28;20206;-84
2023/10/20 09:15:11;;;;;;;2.60;2.40;;;;;;;9.20;100.00;97554.38;5027486;28;20203;-83
2023/10/20 09:17:38;;;;;;;3.17;2.27;;;;;;;9.20;100.00;97563.00;5028316;28;20250;-82
2023/10/20 09:20:06;;;;;;;2.57;2.37;;;;;;;9.23;100.00;97565.41;5025942;28;20676;-83
2023/10/20 09:22:34;;;;;;;2.63;2.50;;;;;;;8.70;100.00;97554.66;5020131;28;20257;-82
2023/10/20 09:25:00;;;;;;;2.50;2.30;;;;;;;9.16;100.00;97548.50;5019820;28;20203;-83
2023/10/20 09:27:27;;;;;;;2.40;2.20;;;;;;;9.21;100.00;97564.66;5020399;28;20222;-83
2023/10/20 09:29:55;;;;;;;2.63;2.43;;;;;;;9.24;100.00;97576.69;5019817;28;20234;-84
2023/10/20 09:32:22;;;;;;;2.17;2.07;;;;;;;9.25;100.00;97584.38;5019833;28;20199;-85
2023/10/20 09:34:49;;;;;;;2.23;2.13;;;;;;;9.27;100.00;97592.09;5018943;28;20202;-83
2023/10/20 09:37:16;;;;;;;2.10;2.00;;;;;;;9.25;100.00;97605.19;5020794;28;20613;-87
2023/10/20 09:39:44;;;;;;;1.97;1.87;;;;;;;9.26;100.00;97611.25;5017608;28;20700;-88
2023/10/20 09:42:18;;;;;;;1.90;1.80;;;;;;;9.24;100.00;97607.91;5032549;28;20200;-85
2023/10/20 09:44:52;;;;;;;2.07;1.93;;;;;;;9.24;100.00;97615.72;5021198;28;20598;-83
2023/10/20 09:47:22;;;;;;;2.40;2.20;;;;;;;9.24;100.00;97603.53;5022553;28;20245;-86
2023/10/20 09:49:51;;;;;;;2.10;2.00;;;;;;;9.20;100.00;97614.22;5020016;28;20233;-85
2023/10/20 09:52:19;;;;;;;2.60;2.40;;;;;;;9.18;100.00;97603.03;5018718;28;20203;-83
2023/10/20 09:54:50;;;;;;;1.77;1.67;;;;;;;9.20;100.00;97602.03;5020391;28;20206;-84
2023/10/20 09:57:17;;;;;;;1.90;1.80;;;;;;;9.21;100.00;97597.66;5045449;28;20202;-82
2023/10/20 09:59:44;;;;;;;2.13;2.03;;;;;;;9.16;100.00;97595.34;5058456;28;20214;-82
2023/10/20 10:02:10;;;;;;;2.13;1.80;;;;;;;9.16;100.00;97584.94;5054707;28;20205;-81
2023/10/20 10:04:39;;;;;;;2.40;2.20;;;;;;;9.17;100.00;97586.59;5055922;28;20186;-84
2023/10/20 10:07:06;;;;;;;2.10;2.00;;;;;;;9.18;100.00;97585.69;5050853;28;20226;-85
2023/10/20 10:09:37;;;;;;;1.90;1.80;;;;;;;9.22;100.00;97581.13;5041356;28;20692;-85
2023/10/20 10:12:10;;;;;;;2.07;1.87;;;;;;;9.25;100.00;97584.38;5027243;28;20238;-83
2023/10/20 10:14:37;;;;;;;1.70;1.60;;;;;;;9.24;100.00;97595.72;5025925;28;20208;-86
2023/10/20 10:17:09;;;;;;;1.80;1.70;;;;;;;9.27;100.00;97590.31;5023168;28;20231;-87
2023/10/20 10:19:35;;;;;;;2.10;2.00;;;;;;;9.30;100.00;97594.53;5015625;28;20234;-86
2023/10/20 10:22:04;;;;;;;1.90;1.80;;;;;;;9.30;100.00;97594.53;5014683;28;20210;-85
2023/10/20 10:24:34;;;;;;;1.90;1.80;;;;;;;9.31;100.00;97601.38;5015688;28;20700;-84
2023/10/20 10:27:04;;;;;;;2.43;2.20;;;;;;;9.30;100.00;97608.38;5035744;28;20232;-84
2023/10/20 10:29:50;;;;;;;2.27;2.03;;;;;;;9.28;100.00;97593.78;5023015;28;20203;-85
2023/10/20 10:32:18;;;;;;;1.60;1.50;;;;;;;9.28;100.00;97585.97;5019081;28;20633;-85
2023/10/20 10:34:46;;;;;;;1.40;1.30;;;;;;;9.30;100.00;97576.31;5019022;28;20265;-84
2023/10/20 10:37:13;;;;;;;1.47;1.37;;;;;;;9.31;100.00;97581.41;5019130;28;20730;-85
2023/10/20 10:39:40;;;;;;;3.10;2.80;;;;;;;9.32;100.00;97564.03;5018480;28;20218;-84
2023/10/20 10:42:07;;;;;;;1.70;1.60;;;;;;;9.30;100.00;97558.91;5028515;28;20272;-84
2023/10/20 10:44:35;;;;;;;1.80;1.70;;;;;;;9.30;100.00;97584.13;5030355;28;20634;-88
2023/10/20 10:47:17;;;;;;;1.80;1.70;;;;;;;9.30;100.00;97584.94;5029098;28;20214;-85
2023/10/20 10:49:47;;;;;;;1.50;1.40;;;;;;;9.30;100.00;97573.69;5024294;28;20195;-87
2023/10/20 10:52:14;;;;;;;1.70;1.60;;;;;;;9.33;100.00;97570.91;5026512;28;20203;-86
2023/10/20 10:54:40;;;;;;;1.50;1.40;;;;;;;9.31;100.00;97568.38;5030730;28;20217;-86
2023/10/20 10:57:17;;;;;;;1.50;1.40;;;;;;;9.36;100.00;97567.28;5036131;28;20224;-88
2023/10/20 10:59:59;;;;;;;1.57;1.47;;;;;;;9.34;100.00;97567.38;5030705;28;20201;-85
2023/10/20 11:02:29;;;;;;;1.50;1.40;;;;;;;9.34;100.00;97555.19;5026146;28;20210;-87
2023/10/20 11:04:56;;;;;;;1.90;1.57;;;;;;;9.37;100.00;97548.13;5019000;28;20215;-87
2023/10/20 11:08:12;;;;;;;;;;;;;;;;;;;;;
2023/10/20 11:14:34;;;;;;;4.27;1.50;;;;;;;9.27;100.00;97521.81;4932764;28;20210;-86
2023/10/20 11:17:03;;;;;;;1.10;1.10;;;;;;;9.24;100.00;97528.06;5016607;28;20627;-83
2023/10/20 11:20:09;;;;;;;1.37;1.27;;;;;;;9.25;100.00;97506.28;5022769;28;20311;-86
2023/10/20 11:23:14;;;;;;;1.77;1.67;;;;;;;9.27;100.00;97504.44;5027143;28;20279;-86
2023/10/20 11:31:37;;;;;;;2.03;1.83;;;;;;;9.28;100.00;97505.28;5014232;28;20462;-86
2023/10/20 11:34:04;;;;;;;1.50;1.40;;;;;;;9.34;100.00;97495.31;5017391;28;20221;-85
2023/10/20 11:36:35;;;;;;;2.00;1.80;;;;;;;9.32;100.00;97506.78;5017112;28;20198;-86
2023/10/20 11:39:02;;;;;;;1.50;1.40;;;;;;;9.31;100.00;97510.28;4999840;28;20636;-87
2023/10/20 11:41:39;;;;;;;1.90;1.80;;;;;;;9.30;100.00;97517.28;4997915;28;20204;-85
2023/10/20 11:46:58;;;;;;;1.20;1.20;;;;;;;9.26;100.00;97507.16;4987735;28;20230;-87
2023/10/20 11:50:18;;;;;;;1.83;1.73;;;;;;;9.26;100.00;97483.72;4996190;28;20215;-87
2023/10/20 12:03:10;;;;;;;2.20;2.00;;;;;;;9.13;100.00;97435.00;4870350;29;20346;-88
2023/10/20 12:05:39;;;;;;;1.50;1.40;;;;;;;9.11;100.00;97428.22;4915046;29;20214;-88
2023/10/20 12:08:06;;;;;;;1.70;1.60;;;;;;;9.10;100.00;97427.41;4916192;29;20230;-87
2023/10/20 12:10:33;;;;;;;1.97;1.87;;;;;;;9.08;100.00;97416.25;4916216;29;20272;-85
2023/10/20 12:13:06;;;;;;;1.60;1.50;;;;;;;9.08;100.00;97407.63;4957549;28;20211;-86
2023/10/20 12:21:48;;;;;;;1.30;1.20;;;;;;;9.02;100.00;97405.38;4982987;28;20267;-86